Sault Sainte Marie, Michigan
Current Conditions -  °F | °C
As of 6:55 PM on Sunday 23 Nov 2014 (Local Time) from KANJ Reporting Station
Light Rain Light Rain  
Wind Chill: 37°   Ceiling: 200
Heat Index: 40°   Visibility: 0.25mi
Dew Point: 39°   Wind: 5mph
Humidity: 97%   Direction: 90°E
Pressure: 29.53"   Gusts: NA
Location:  46.3629°N, 84.3293°W
Report Text: KANJ 232355Z AUTO 09004KT 1/4SM -RA FG VV002 04/04 A2953 RMK AO2 RAB22 SLP003 P0003 60003 T00440039 10061 20044 58020
Loading
Personal Weather Stations






























Interactive Weather Map New forecast layout! Learn more

10-Day Weather Forecast

Advertisements
Track Severe Weather on mobile